createdAt,value
2024-02-06T00:00:31.685Z,24.67
2024-02-06T00:01:31.839Z,24.68
2024-02-06T00:02:31.869Z,24.68
2024-02-06T00:03:31.709Z,24.69
2024-02-06T00:04:31.886Z,24.68
2024-02-06T00:05:31.725Z,24.68
2024-02-06T00:06:31.728Z,24.71
2024-02-06T00:07:35.636Z,24.69
2024-02-06T00:08:31.819Z,24.70
2024-02-06T00:09:31.815Z,24.71
2024-02-06T00:10:31.775Z,24.69
2024-02-06T00:11:31.714Z,24.69
2024-02-06T00:12:31.723Z,24.70
2024-02-06T00:13:31.825Z,24.69
2024-02-06T00:14:31.729Z,24.69
2024-02-06T00:15:31.739Z,24.69
2024-02-06T00:16:31.847Z,24.66
2024-02-06T00:17:31.791Z,24.66
2024-02-06T00:18:31.704Z,24.69
2024-02-06T00:19:31.841Z,24.71
2024-02-06T00:20:31.959Z,24.67
2024-02-06T00:21:31.738Z,24.68
2024-02-06T00:22:31.869Z,24.68
2024-02-06T00:23:31.822Z,24.72
2024-02-06T00:24:31.882Z,24.69
2024-02-06T00:25:32.012Z,24.69
2024-02-06T00:26:31.998Z,24.74
2024-02-06T00:27:32.086Z,24.69
2024-02-06T00:28:32.161Z,24.69
2024-02-06T00:29:32.203Z,24.68
2024-02-06T00:30:32.260Z,24.71
2024-02-06T00:31:32.414Z,24.70
2024-02-06T00:32:32.367Z,24.69
2024-02-06T00:33:32.485Z,24.72
2024-02-06T00:34:32.651Z,24.71
2024-02-06T00:35:32.564Z,24.71
2024-02-06T00:36:32.615Z,24.71
2024-02-06T00:37:32.744Z,24.69
2024-02-06T00:38:32.783Z,24.71
2024-02-06T00:39:32.796Z,24.73
2024-02-06T00:40:33.045Z,24.72
2024-02-06T00:41:32.960Z,24.72
2024-02-06T00:42:33.017Z,24.71
2024-02-06T00:43:33.238Z,24.74
2024-02-06T00:44:33.175Z,24.71
2024-02-06T00:45:33.218Z,24.72
2024-02-06T00:46:33.358Z,24.73
2024-02-06T00:47:33.471Z,24.73
2024-02-06T00:48:33.657Z,24.71
2024-02-06T00:49:33.669Z,24.72
2024-02-06T00:50:33.681Z,24.71
2024-02-06T00:51:33.627Z,24.72
2024-02-06T00:52:33.783Z,24.71
2024-02-06T00:53:33.758Z,24.71
2024-02-06T00:54:33.880Z,24.72
2024-02-06T00:55:33.909Z,24.72
2024-02-06T00:56:33.986Z,24.72
2024-02-06T00:57:34.016Z,24.73
2024-02-06T00:58:34.379Z,24.72
2024-02-06T00:59:34.150Z,24.72
2024-02-06T01:00:34.250Z,24.72
2024-02-06T01:01:34.334Z,24.74
2024-02-06T01:02:34.361Z,24.72
2024-02-06T01:03:34.454Z,24.70
2024-02-06T01:04:34.540Z,24.73
2024-02-06T01:05:34.602Z,24.71
2024-02-06T01:06:34.668Z,24.72
2024-02-06T01:07:34.868Z,24.73
2024-02-06T01:08:34.785Z,24.72
2024-02-06T01:09:34.810Z,24.73
2024-02-06T01:10:35.060Z,24.74
2024-02-06T01:11:34.998Z,24.73
2024-02-06T01:12:35.057Z,24.73
2024-02-06T01:13:35.235Z,24.74
2024-02-06T01:14:35.224Z,24.72
2024-02-06T01:15:35.282Z,24.72
2024-02-06T01:16:35.397Z,24.73
2024-02-06T01:17:35.430Z,24.73
2024-02-06T01:18:35.469Z,24.73
2024-02-06T01:19:35.602Z,24.73
2024-02-06T01:20:35.573Z,24.73
2024-02-06T01:21:35.619Z,24.74
2024-02-06T01:22:35.690Z,24.75
2024-02-06T01:23:35.690Z,24.77
2024-02-06T01:24:35.749Z,24.75
2024-02-06T01:25:35.794Z,24.74
2024-02-06T01:26:35.765Z,24.73
2024-02-06T01:27:35.824Z,24.75
2024-02-06T01:28:35.989Z,24.73
2024-02-06T01:29:35.988Z,24.73
2024-02-06T01:30:35.977Z,24.76
2024-02-06T01:31:35.998Z,24.75
2024-02-06T01:32:36.091Z,24.73
2024-02-06T01:33:36.091Z,24.72
2024-02-06T01:34:36.274Z,24.72
2024-02-06T01:35:36.127Z,24.74
2024-02-06T01:36:36.183Z,24.76
2024-02-06T01:37:36.371Z,24.73
2024-02-06T01:38:36.357Z,24.75
2024-02-06T01:39:36.458Z,24.77
2024-02-06T01:40:36.531Z,24.77
2024-02-06T01:41:36.570Z,24.72
2024-02-06T01:42:36.572Z,24.73
2024-02-06T01:43:36.774Z,24.74
2024-02-06T01:44:36.752Z,24.75
2024-02-06T01:45:36.771Z,24.74
2024-02-06T01:46:36.933Z,24.78
2024-02-06T01:47:36.836Z,24.75
2024-02-06T01:48:36.947Z,24.75
2024-02-06T01:49:36.991Z,24.75
2024-02-06T01:50:36.931Z,24.77
2024-02-06T01:51:36.941Z,24.71
2024-02-06T01:52:37.037Z,24.77
2024-02-06T01:53:37.014Z,24.74
2024-02-06T01:54:37.053Z,24.74
2024-02-06T01:55:37.099Z,24.74
2024-02-06T01:56:37.078Z,24.75
2024-02-06T01:57:37.154Z,24.75
2024-02-06T01:58:37.341Z,24.76
2024-02-06T01:59:37.154Z,24.74
2024-02-06T02:00:37.279Z,24.76
2024-02-06T02:01:37.311Z,24.72
2024-02-06T02:02:37.232Z,24.73
2024-02-06T02:03:37.334Z,24.75
2024-02-06T02:04:37.304Z,24.75
2024-02-06T02:05:37.392Z,24.77
2024-02-06T02:06:37.356Z,24.78
2024-02-06T02:07:37.389Z,24.76
2024-02-06T02:08:37.272Z,24.74
2024-02-06T02:09:37.272Z,24.74
2024-02-06T02:10:37.388Z,24.74
2024-02-06T02:11:37.313Z,24.77
2024-02-06T02:12:37.380Z,24.75
2024-02-06T02:13:37.485Z,24.74
2024-02-06T02:14:37.522Z,24.75
2024-02-06T02:15:37.327Z,24.74
2024-02-06T02:16:37.431Z,24.78
2024-02-06T02:17:37.398Z,24.77
2024-02-06T02:18:37.542Z,24.76
2024-02-06T02:19:37.421Z,24.75
2024-02-06T02:20:37.440Z,24.73
2024-02-06T02:21:37.409Z,24.75
2024-02-06T02:22:37.550Z,24.78
2024-02-06T02:23:37.378Z,24.75
2024-02-06T02:24:37.430Z,24.76
2024-02-06T02:25:37.446Z,24.75
2024-02-06T02:26:37.403Z,24.77
2024-02-06T02:27:37.463Z,24.78
2024-02-06T02:28:37.520Z,24.75
2024-02-06T02:29:37.396Z,24.77
2024-02-06T02:30:37.455Z,24.76
2024-02-06T02:31:37.555Z,24.74
2024-02-06T02:32:37.490Z,24.75
2024-02-06T02:33:37.572Z,24.74
2024-02-06T02:34:37.565Z,24.74
2024-02-06T02:35:37.510Z,24.76
2024-02-06T02:36:37.516Z,24.76
2024-02-06T02:37:37.552Z,24.76
2024-02-06T02:38:37.548Z,24.76
2024-02-06T02:39:37.542Z,24.76
2024-02-06T02:40:37.597Z,24.77
2024-02-06T02:41:37.564Z,24.76
2024-02-06T02:42:37.621Z,24.76
2024-02-06T02:43:37.699Z,24.79
2024-02-06T02:44:37.531Z,24.75
2024-02-06T02:45:37.626Z,24.74
2024-02-06T02:46:37.736Z,24.75
2024-02-06T02:47:37.621Z,24.76
2024-02-06T02:48:37.679Z,24.76
2024-02-06T02:49:37.755Z,24.75
2024-02-06T02:50:37.641Z,24.75
2024-02-06T02:51:37.666Z,24.76
2024-02-06T02:52:37.767Z,24.75
2024-02-06T02:53:37.719Z,24.74
2024-02-06T02:54:37.665Z,24.75
2024-02-06T02:55:37.755Z,24.75
2024-02-06T02:56:37.683Z,24.74
2024-02-06T02:57:37.708Z,24.75
2024-02-06T02:58:37.856Z,24.75
2024-02-06T02:59:37.722Z,24.77
2024-02-06T03:00:37.816Z,24.74
2024-02-06T03:01:37.844Z,24.74
2024-02-06T03:02:37.785Z,24.75
2024-02-06T03:03:37.819Z,24.76
2024-02-06T03:04:37.861Z,24.76
2024-02-06T03:05:37.856Z,24.77
2024-02-06T03:06:37.803Z,24.77
2024-02-06T03:07:37.863Z,24.75
2024-02-06T03:08:37.801Z,24.75
2024-02-06T03:09:37.863Z,24.76
2024-02-06T03:10:37.982Z,24.76
2024-02-06T03:11:37.867Z,24.77
2024-02-06T03:12:37.908Z,24.76
2024-02-06T03:13:37.975Z,24.72
2024-02-06T03:14:37.898Z,24.77
2024-02-06T03:15:37.896Z,24.76
2024-02-06T03:16:38.008Z,24.77
2024-02-06T03:17:37.966Z,24.75
2024-02-06T03:18:37.996Z,24.76
2024-02-06T03:19:38.089Z,24.76
2024-02-06T03:20:37.944Z,24.75
2024-02-06T03:21:37.996Z,24.77
2024-02-06T03:22:38.118Z,24.78
2024-02-06T03:23:38.063Z,24.75
2024-02-06T03:24:37.986Z,24.76
2024-02-06T03:25:38.006Z,24.77
2024-02-06T03:26:38.025Z,24.77
2024-02-06T03:27:38.088Z,24.75
2024-02-06T03:28:38.101Z,24.77
2024-02-06T03:29:38.073Z,24.76
2024-02-06T03:30:38.078Z,24.77
2024-02-06T03:31:38.164Z,24.76
2024-02-06T03:32:38.041Z,24.78
2024-02-06T03:33:38.205Z,24.77
2024-02-06T03:34:38.281Z,24.78
2024-02-06T03:35:38.084Z,24.77
2024-02-06T03:36:38.167Z,24.75
2024-02-06T03:37:38.226Z,24.77
2024-02-06T03:38:38.115Z,24.77
2024-02-06T03:39:38.145Z,24.77
2024-02-06T03:40:38.275Z,24.77
2024-02-06T03:41:38.171Z,24.75
2024-02-06T03:42:38.181Z,24.76
2024-02-06T03:43:40.882Z,24.77
2024-02-06T03:44:38.171Z,24.76
2024-02-06T03:45:38.200Z,24.78
2024-02-06T03:46:38.272Z,24.77
2024-02-06T03:47:38.242Z,24.78
2024-02-06T03:48:38.219Z,24.77
2024-02-06T03:49:38.286Z,24.77
2024-02-06T03:50:38.177Z,24.74
2024-02-06T03:51:38.179Z,24.76
2024-02-06T03:52:38.218Z,24.78
2024-02-06T03:53:38.221Z,24.77
2024-02-06T03:54:38.215Z,24.79
2024-02-06T03:55:38.275Z,24.77
2024-02-06T03:56:38.231Z,24.77
2024-02-06T03:57:38.238Z,24.76
2024-02-06T03:58:38.273Z,24.79
2024-02-06T03:59:38.194Z,24.77
2024-02-06T04:00:38.191Z,24.76
2024-02-06T04:01:38.300Z,24.77
2024-02-06T04:02:38.282Z,24.77
2024-02-06T04:03:38.215Z,24.77
2024-02-06T04:04:38.246Z,24.78
2024-02-06T04:05:38.260Z,24.77
2024-02-06T04:06:38.323Z,24.80
2024-02-06T04:07:38.319Z,24.79
2024-02-06T04:08:38.202Z,24.74
2024-02-06T04:09:38.209Z,24.77
2024-02-06T04:10:38.253Z,24.78
2024-02-06T04:11:38.229Z,24.76
2024-02-06T04:12:38.215Z,24.76
2024-02-06T04:13:38.333Z,24.77
2024-02-06T04:14:38.237Z,24.76
2024-02-06T04:15:38.286Z,24.78
2024-02-06T04:16:38.268Z,24.77
2024-02-06T04:17:38.226Z,24.76
2024-02-06T04:18:38.299Z,24.78
2024-02-06T04:19:38.327Z,24.77
2024-02-06T04:20:38.237Z,24.76
2024-02-06T04:21:38.226Z,24.77
2024-02-06T04:22:38.404Z,24.77
2024-02-06T04:23:38.291Z,24.76
2024-02-06T04:24:38.210Z,24.77
2024-02-06T04:25:38.260Z,24.76
2024-02-06T04:26:38.296Z,24.78
2024-02-06T04:28:05.893Z,24.78
2024-02-06T04:29:05.837Z,24.78
2024-02-06T04:30:05.803Z,24.75
2024-02-06T04:31:13.130Z,24.80
2024-02-06T04:32:13.054Z,24.78
2024-02-06T04:33:13.097Z,24.79
2024-02-06T04:34:13.372Z,24.81
2024-02-06T04:35:13.086Z,24.77
2024-02-06T04:36:13.048Z,24.77
2024-02-06T04:37:13.104Z,24.77
2024-02-06T04:38:13.060Z,24.77
2024-02-06T04:39:13.069Z,24.78
2024-02-06T04:40:13.127Z,24.77
2024-02-06T04:41:13.069Z,24.76
2024-02-06T04:42:13.044Z,24.77
2024-02-06T04:43:13.086Z,24.77
2024-02-06T04:44:13.102Z,24.77
2024-02-06T04:45:13.174Z,24.77
2024-02-06T04:46:13.102Z,24.79
2024-02-06T04:47:13.085Z,24.76
2024-02-06T04:48:13.197Z,24.75
2024-02-06T04:49:13.187Z,24.78
2024-02-06T04:50:13.200Z,24.78
2024-02-06T04:51:13.118Z,24.77
2024-02-06T04:52:13.196Z,24.77
2024-02-06T04:53:13.124Z,24.76
2024-02-06T04:54:13.101Z,24.77
2024-02-06T04:55:13.141Z,24.75
2024-02-06T04:56:13.101Z,24.75
2024-02-06T04:57:13.102Z,24.77
2024-02-06T04:58:13.144Z,24.77
2024-02-06T04:59:13.082Z,24.76
2024-02-06T05:00:13.093Z,24.76
2024-02-06T05:01:13.156Z,24.77
2024-02-06T05:02:13.130Z,24.78
2024-02-06T05:03:13.082Z,24.77
2024-02-06T05:04:13.213Z,24.65
2024-02-06T05:05:13.232Z,24.61
2024-02-06T05:06:13.232Z,24.51
2024-02-06T05:07:13.176Z,24.46
2024-02-06T05:08:13.199Z,24.36
2024-02-06T05:09:13.078Z,24.31
2024-02-06T05:10:13.168Z,24.22
2024-02-06T05:11:13.127Z,24.14
2024-02-06T05:12:13.110Z,24.08
2024-02-06T05:13:13.202Z,24.05
2024-02-06T05:14:13.120Z,23.93
2024-02-06T05:15:13.116Z,23.99
2024-02-06T05:16:13.179Z,23.91
2024-02-06T05:17:13.114Z,23.78
2024-02-06T05:18:13.225Z,23.75
2024-02-06T05:19:13.257Z,23.71
2024-02-06T05:20:13.129Z,23.66
2024-02-06T05:21:13.109Z,23.60
2024-02-06T05:22:13.174Z,23.53
2024-02-06T05:23:13.129Z,23.49
2024-02-06T05:24:13.188Z,23.43
2024-02-06T05:25:13.258Z,23.43
2024-02-06T05:26:13.259Z,23.38
2024-02-06T05:27:13.272Z,23.40
2024-02-06T05:28:13.379Z,23.34
2024-02-06T05:29:13.387Z,23.20
2024-02-06T05:30:13.392Z,23.19
2024-02-06T05:31:13.448Z,23.16
2024-02-06T05:32:13.484Z,23.10
2024-02-06T05:33:13.528Z,23.17
2024-02-06T05:34:13.612Z,23.20
2024-02-06T05:35:13.729Z,23.22
2024-02-06T05:36:13.608Z,23.27
2024-02-06T05:37:13.653Z,23.23
2024-02-06T05:38:13.658Z,23.20
2024-02-06T05:39:13.662Z,23.23
2024-02-06T05:40:14.295Z,23.24
2024-02-06T05:41:13.774Z,23.29
2024-02-06T05:42:13.777Z,23.31
2024-02-06T05:43:13.834Z,23.33
2024-02-06T05:44:13.865Z,23.33
2024-02-06T05:45:13.897Z,23.35
2024-02-06T05:46:13.964Z,23.37
2024-02-06T05:47:13.982Z,23.38
2024-02-06T05:48:14.042Z,23.41
2024-02-06T05:49:14.159Z,23.40
2024-02-06T05:50:14.301Z,23.42
2024-02-06T05:51:14.112Z,23.46
2024-02-06T05:52:14.177Z,23.44
2024-02-06T05:53:14.200Z,23.45
2024-02-06T05:54:14.247Z,23.48
2024-02-06T05:55:14.329Z,23.50
2024-02-06T05:56:14.283Z,23.50
2024-02-06T05:57:14.329Z,23.53
2024-02-06T05:58:14.434Z,23.53
2024-02-06T05:59:14.419Z,23.54
2024-02-06T06:00:14.482Z,23.56
2024-02-06T06:01:14.527Z,23.56
2024-02-06T06:02:14.627Z,23.57
2024-02-06T06:03:14.577Z,23.60
2024-02-06T06:04:14.763Z,23.60
2024-02-06T06:05:14.731Z,23.61
2024-02-06T06:06:14.871Z,23.63
2024-02-06T06:07:14.793Z,23.61
2024-02-06T06:08:14.780Z,23.60
2024-02-06T06:09:14.847Z,23.65
2024-02-06T06:10:14.878Z,23.66
2024-02-06T06:11:14.905Z,23.68
2024-02-06T06:12:14.927Z,23.65
2024-02-06T06:13:15.062Z,23.66
2024-02-06T06:14:15.038Z,23.69
2024-02-06T06:15:15.025Z,23.68
2024-02-06T06:16:15.138Z,23.70
2024-02-06T06:17:15.217Z,23.69
2024-02-06T06:18:15.201Z,23.69
2024-02-06T06:19:15.322Z,23.70
2024-02-06T06:20:15.380Z,23.72
2024-02-06T06:21:15.282Z,23.71
2024-02-06T06:22:15.371Z,23.72
2024-02-06T06:23:15.356Z,23.73
2024-02-06T06:24:15.416Z,23.74
2024-02-06T06:25:15.588Z,23.76
2024-02-06T06:26:15.470Z,23.73
2024-02-06T06:27:15.569Z,23.75
2024-02-06T06:28:15.622Z,23.74
2024-02-06T06:29:15.595Z,23.75
2024-02-06T06:30:15.699Z,23.79
2024-02-06T06:31:15.703Z,23.85
2024-02-06T06:32:15.725Z,23.89
2024-02-06T06:33:15.857Z,23.89
2024-02-06T06:34:15.877Z,23.92
2024-02-06T06:35:15.886Z,23.99
2024-02-06T06:36:15.860Z,24.06
2024-02-06T06:37:15.919Z,24.26
2024-02-06T06:38:15.913Z,24.55
2024-02-06T06:39:16.001Z,24.35
2024-02-06T06:40:16.032Z,24.45
2024-02-06T06:41:16.032Z,24.53
2024-02-06T06:42:15.993Z,24.59
2024-02-06T06:43:16.073Z,24.75
2024-02-06T06:44:16.098Z,24.83
2024-02-06T06:45:16.066Z,24.87
2024-02-06T06:46:16.194Z,24.96
2024-02-06T06:47:16.134Z,25.06
2024-02-06T06:48:16.114Z,25.00
2024-02-06T06:49:16.392Z,24.51
2024-02-06T06:50:16.202Z,23.95
2024-02-06T06:51:16.156Z,23.81
2024-02-06T06:52:16.196Z,23.89
2024-02-06T06:53:16.209Z,23.66
2024-02-06T06:54:16.265Z,23.74
2024-02-06T06:55:16.785Z,23.52
2024-02-06T06:56:16.340Z,23.35
2024-02-06T06:57:16.368Z,23.71
2024-02-06T06:58:16.443Z,23.27
2024-02-06T06:59:16.471Z,23.26
2024-02-06T07:00:16.738Z,23.89
2024-02-06T07:01:16.635Z,23.98
2024-02-06T07:02:16.586Z,23.91
2024-02-06T07:03:16.710Z,23.96
2024-02-06T07:04:16.775Z,23.97
2024-02-06T07:05:16.702Z,23.84
2024-02-06T07:06:16.745Z,23.69
2024-02-06T07:07:17.312Z,23.72
2024-02-06T07:08:16.782Z,23.70
2024-02-06T07:09:17.247Z,23.62
2024-02-06T07:10:16.899Z,23.37
2024-02-06T07:11:16.800Z,23.68
2024-02-06T07:12:16.816Z,23.31
2024-02-06T07:13:16.875Z,23.15
2024-02-06T07:14:17.249Z,23.59
2024-02-06T07:15:16.827Z,23.56
2024-02-06T07:16:16.858Z,23.34
2024-02-06T07:17:16.843Z,23.15
2024-02-06T07:18:17.021Z,23.23
2024-02-06T07:19:17.313Z,22.98
2024-02-06T07:20:17.015Z,22.73
2024-02-06T07:21:17.095Z,22.86
2024-02-06T07:22:17.168Z,23.13
2024-02-06T07:23:17.226Z,23.15
2024-02-06T07:24:17.241Z,23.14
2024-02-06T07:25:17.319Z,23.20
2024-02-06T07:26:17.403Z,23.28
2024-02-06T07:27:17.530Z,22.86
2024-02-06T07:28:17.564Z,22.71
2024-02-06T07:29:17.592Z,22.65
2024-02-06T07:30:27.279Z,22.81
2024-02-06T07:31:18.652Z,22.60
2024-02-06T07:32:17.665Z,22.58
2024-02-06T07:33:17.753Z,22.50
2024-02-06T07:34:17.717Z,22.40
2024-02-06T07:35:17.690Z,22.26
2024-02-06T07:36:17.636Z,22.14
2024-02-06T07:37:17.701Z,22.11
2024-02-06T07:38:17.660Z,22.01
2024-02-06T07:39:17.772Z,22.01
2024-02-06T07:40:17.917Z,22.20
2024-02-06T07:41:17.807Z,22.02
2024-02-06T07:42:17.889Z,22.12
2024-02-06T07:43:20.620Z,21.33
2024-02-06T07:44:18.254Z,21.11
2024-02-06T07:45:17.949Z,21.09
2024-02-06T07:46:18.333Z,21.48
2024-02-06T07:47:17.940Z,21.79
2024-02-06T07:48:18.421Z,22.00
2024-02-06T07:49:18.054Z,22.17
2024-02-06T07:50:17.944Z,22.29
2024-02-06T07:51:17.888Z,22.44
2024-02-06T07:52:17.955Z,22.56
2024-02-06T07:53:18.319Z,22.61
2024-02-06T07:54:17.907Z,22.64
2024-02-06T07:55:17.963Z,22.70
2024-02-06T07:56:17.932Z,22.71
2024-02-06T07:57:17.943Z,22.64
2024-02-06T07:58:17.909Z,22.62
2024-02-06T07:59:18.234Z,22.63
2024-02-06T08:00:17.913Z,22.59
2024-02-06T08:01:18.131Z,22.62
2024-02-06T08:02:17.999Z,22.66
2024-02-06T08:03:17.891Z,22.72
2024-02-06T08:04:18.268Z,22.70
2024-02-06T08:05:17.965Z,22.77
2024-02-06T08:06:18.069Z,22.87
2024-02-06T08:07:18.285Z,22.89
2024-02-06T08:08:18.103Z,22.99
2024-02-06T08:09:18.276Z,23.05
2024-02-06T08:10:17.955Z,23.07
2024-02-06T08:11:17.922Z,23.14
2024-02-06T08:12:17.918Z,23.22
2024-02-06T08:13:17.974Z,23.30
2024-02-06T08:14:18.308Z,23.35
2024-02-06T08:15:17.946Z,23.40
2024-02-06T08:16:17.967Z,23.44
2024-02-06T08:17:17.958Z,23.52
2024-02-06T08:18:19.909Z,23.48
2024-02-06T08:19:18.026Z,23.53
2024-02-06T08:20:18.122Z,23.60
2024-02-06T08:21:17.936Z,23.77
2024-02-06T08:22:17.974Z,23.83
2024-02-06T08:23:18.761Z,23.84
2024-02-06T08:24:18.716Z,23.84
2024-02-06T08:25:17.983Z,24.01
2024-02-06T08:26:17.909Z,24.00
2024-02-06T08:27:17.923Z,24.00
2024-02-06T08:28:18.356Z,23.89
2024-02-06T08:29:17.943Z,23.89
2024-02-06T08:30:17.966Z,23.95
2024-02-06T08:31:18.050Z,24.01
2024-02-06T08:32:18.077Z,23.61
2024-02-06T08:33:18.324Z,23.50
2024-02-06T08:34:18.199Z,23.06
2024-02-06T08:35:18.413Z,23.12
2024-02-06T08:36:18.310Z,22.97
2024-02-06T08:37:18.396Z,23.28
2024-02-06T08:38:18.838Z,23.50
2024-02-06T08:39:18.406Z,23.56
2024-02-06T08:40:18.466Z,23.64
2024-02-06T08:41:18.505Z,23.77
2024-02-06T08:42:18.553Z,23.83
2024-02-06T08:43:19.194Z,24.02
2024-02-06T08:44:18.752Z,23.88
2024-02-06T08:45:18.658Z,23.58
2024-02-06T08:46:18.746Z,23.36
2024-02-06T08:47:18.761Z,23.19
2024-02-06T08:48:18.793Z,23.07
2024-02-06T08:49:18.900Z,22.98
2024-02-06T08:50:18.884Z,22.95
2024-02-06T08:51:18.879Z,22.82
2024-02-06T08:52:19.281Z,22.67
2024-02-06T08:53:18.915Z,22.70
2024-02-06T08:54:21.158Z,22.68
2024-02-06T08:55:18.977Z,22.60
2024-02-06T08:56:19.019Z,22.54
2024-02-06T08:57:18.944Z,22.43
2024-02-06T08:58:19.039Z,22.36
2024-02-06T08:59:19.310Z,22.34
2024-02-06T09:00:19.032Z,22.37
2024-02-06T09:01:19.133Z,22.28
2024-02-06T09:02:19.724Z,22.31
2024-02-06T09:03:18.989Z,22.57
2024-02-06T09:04:19.067Z,22.38
2024-02-06T09:05:19.302Z,22.35
2024-02-06T09:06:19.052Z,22.30
2024-02-06T09:07:20.298Z,22.44
2024-02-06T09:08:19.956Z,22.58
2024-02-06T09:09:19.267Z,22.59
2024-02-06T09:10:19.064Z,22.64
2024-02-06T09:11:19.721Z,22.73
2024-02-06T09:12:19.264Z,22.72
2024-02-06T09:13:19.320Z,22.85
2024-02-06T09:14:19.002Z,22.93
2024-02-06T09:15:19.057Z,23.09
2024-02-06T09:16:19.021Z,23.00
2024-02-06T09:17:18.991Z,22.99
2024-02-06T09:18:19.500Z,23.07
2024-02-06T09:19:19.064Z,23.41
2024-02-06T09:20:19.251Z,23.49
2024-02-06T09:21:19.321Z,23.51
2024-02-06T09:22:19.081Z,23.59
2024-02-06T09:23:19.003Z,23.76
2024-02-06T09:24:19.300Z,23.62
2024-02-06T09:25:19.049Z,23.18
2024-02-06T09:26:19.026Z,22.43
2024-02-06T09:27:19.006Z,22.56
2024-02-06T09:28:19.038Z,22.47
2024-02-06T09:29:19.282Z,22.36
2024-02-06T09:30:19.084Z,22.19
2024-02-06T09:31:20.423Z,21.43
2024-02-06T09:32:19.105Z,20.95
2024-02-06T09:33:19.237Z,20.81
2024-02-06T09:34:19.383Z,20.55
2024-02-06T09:35:19.264Z,20.39
2024-02-06T09:36:19.776Z,19.97
2024-02-06T09:37:19.312Z,19.92
2024-02-06T09:38:19.377Z,19.99
2024-02-06T09:39:19.489Z,19.92
2024-02-06T09:40:19.820Z,20.09
2024-02-06T09:41:19.501Z,20.06
2024-02-06T09:42:20.065Z,20.13
2024-02-06T09:43:19.558Z,20.40
2024-02-06T09:44:19.450Z,20.83
2024-02-06T09:45:19.807Z,21.27
2024-02-06T09:46:19.523Z,21.60
2024-02-06T09:47:19.788Z,21.87
2024-02-06T09:48:19.753Z,21.94
2024-02-06T09:49:19.858Z,21.69
2024-02-06T09:50:19.807Z,21.55
2024-02-06T09:51:19.827Z,21.02
2024-02-06T09:52:19.904Z,20.77
2024-02-06T09:53:19.920Z,20.55
2024-02-06T09:54:20.003Z,20.60
2024-02-06T09:55:20.420Z,20.76
2024-02-06T09:56:20.786Z,20.89
2024-02-06T09:57:20.222Z,21.15
2024-02-06T09:58:20.337Z,21.24
2024-02-06T09:59:20.345Z,21.40
2024-02-06T10:00:20.424Z,21.47
2024-02-06T10:01:20.882Z,21.55
2024-02-06T10:02:20.493Z,21.60
2024-02-06T10:03:20.473Z,21.66
2024-02-06T10:04:20.694Z,21.73
2024-02-06T10:05:21.310Z,21.72
2024-02-06T10:06:20.572Z,21.75
2024-02-06T10:07:20.575Z,21.75
2024-02-06T10:08:20.543Z,21.84
2024-02-06T10:09:20.562Z,21.86
2024-02-06T10:10:20.682Z,21.91
2024-02-06T10:11:20.808Z,21.94
2024-02-06T10:12:20.833Z,21.98
2024-02-06T10:13:20.875Z,22.04
2024-02-06T10:14:20.895Z,22.08
2024-02-06T10:15:20.933Z,22.13
2024-02-06T10:16:22.895Z,22.19
2024-02-06T10:17:21.050Z,22.23
2024-02-06T10:18:21.294Z,22.26
2024-02-06T10:19:21.306Z,22.27
2024-02-06T10:20:21.320Z,22.33
2024-02-06T10:21:22.626Z,22.34
2024-02-06T10:22:21.388Z,22.36
2024-02-06T10:23:21.403Z,22.40
2024-02-06T10:24:21.512Z,22.41
2024-02-06T10:25:22.324Z,22.44
2024-02-06T10:26:21.799Z,22.48
2024-02-06T10:27:22.273Z,22.48
2024-02-06T10:28:21.780Z,22.48
2024-02-06T10:29:21.699Z,22.50
2024-02-06T10:30:21.806Z,22.53
2024-02-06T10:31:21.911Z,22.57
2024-02-06T10:32:22.636Z,22.62
2024-02-06T10:33:23.010Z,22.67
2024-02-06T10:34:22.124Z,22.72
2024-02-06T10:35:22.492Z,22.82
2024-02-06T10:36:22.104Z,22.79
2024-02-06T10:37:22.178Z,22.88
2024-02-06T10:38:22.228Z,22.92
2024-02-06T10:39:23.576Z,22.94
2024-02-06T10:40:22.714Z,22.91
2024-02-06T10:41:27.545Z,22.93
2024-02-06T10:42:53.815Z,22.93
2024-02-06T10:43:43.327Z,22.97
2024-02-06T10:44:23.658Z,22.98
2024-02-06T10:45:22.624Z,23.04
2024-02-06T10:46:23.706Z,23.29
2024-02-06T10:47:22.838Z,23.24
2024-02-06T10:48:22.726Z,23.33
2024-02-06T10:49:22.771Z,23.37
2024-02-06T10:50:22.952Z,23.32
2024-02-06T10:51:25.244Z,23.38
2024-02-06T10:52:22.611Z,23.47
2024-02-06T10:53:22.836Z,23.49
2024-02-06T10:54:22.615Z,23.57
2024-02-06T10:55:22.692Z,23.52
2024-02-06T10:56:22.613Z,23.49
2024-02-06T10:57:24.817Z,23.49
2024-02-06T10:58:22.639Z,23.50
2024-02-06T10:59:22.624Z,23.58
2024-02-06T11:00:22.703Z,23.55
2024-02-06T11:01:22.751Z,23.54
2024-02-06T11:02:22.884Z,23.57
2024-02-06T11:03:23.755Z,23.55
2024-02-06T11:04:22.925Z,23.57
2024-02-06T11:05:22.773Z,23.61
2024-02-06T11:06:22.750Z,23.58
2024-02-06T11:07:22.800Z,23.64
2024-02-06T11:08:22.827Z,23.61
2024-02-06T11:09:25.869Z,23.60
2024-02-06T11:10:22.936Z,23.60
2024-02-06T11:11:22.832Z,23.58
2024-02-06T11:12:31.434Z,23.55
2024-02-06T11:13:24.359Z,23.56
2024-02-06T11:14:22.873Z,23.53
2024-02-06T11:15:26.179Z,23.54
2024-02-06T11:16:23.093Z,23.50
2024-02-06T11:17:23.828Z,23.47
2024-02-06T11:18:23.030Z,23.33
2024-02-06T11:19:23.387Z,23.18
2024-02-06T11:20:22.904Z,23.30
2024-02-06T11:21:25.932Z,23.19
2024-02-06T11:22:22.931Z,22.99
2024-02-06T11:23:22.883Z,23.17
2024-02-06T11:24:22.886Z,23.10
2024-02-06T11:25:22.902Z,23.04
2024-02-06T11:26:23.334Z,23.09
2024-02-06T11:27:23.312Z,23.06
2024-02-06T11:28:23.372Z,23.01
2024-02-06T11:29:22.879Z,22.90
2024-02-06T11:30:22.879Z,22.85
2024-02-06T11:31:23.454Z,22.99
2024-02-06T11:32:22.881Z,23.00
2024-02-06T11:33:23.060Z,23.05
2024-02-06T11:34:22.976Z,23.08
2024-02-06T11:35:23.005Z,22.98
2024-02-06T11:36:22.965Z,22.86
2024-02-06T11:37:23.153Z,22.70
2024-02-06T11:38:23.103Z,22.63
2024-02-06T11:39:23.735Z,22.53
2024-02-06T11:40:23.193Z,22.39
2024-02-06T11:41:23.229Z,22.31
2024-02-06T11:42:23.374Z,22.44
2024-02-06T11:43:23.394Z,22.35
2024-02-06T11:44:23.844Z,22.37
2024-02-06T11:45:23.459Z,22.31
2024-02-06T11:46:24.019Z,22.43
2024-02-06T11:47:23.603Z,22.38
2024-02-06T11:48:24.519Z,22.54
2024-02-06T11:49:23.887Z,22.80
2024-02-06T11:50:26.313Z,22.18
2024-02-06T11:51:23.801Z,22.11
2024-02-06T11:52:23.848Z,22.64
2024-02-06T11:53:23.799Z,22.20
2024-02-06T11:54:23.785Z,22.35
2024-02-06T11:55:23.822Z,22.10
2024-02-06T11:56:23.822Z,22.18
2024-02-06T11:57:23.851Z,22.02
2024-02-06T11:58:23.903Z,22.09
2024-02-06T11:59:23.816Z,21.76
2024-02-06T12:00:23.776Z,22.00
2024-02-06T12:01:23.927Z,22.12
2024-02-06T12:02:23.975Z,21.95
2024-02-06T12:03:23.884Z,22.25
2024-02-06T12:04:23.830Z,22.38
2024-02-06T12:05:23.864Z,22.25
2024-02-06T12:06:24.008Z,22.34
2024-02-06T12:07:25.319Z,22.23
2024-02-06T12:08:24.092Z,22.52
2024-02-06T12:09:23.930Z,22.61
2024-02-06T12:10:23.825Z,22.36
2024-02-06T12:11:23.885Z,22.30
2024-02-06T12:12:24.010Z,22.37
2024-02-06T12:13:24.384Z,22.31
2024-02-06T12:14:24.057Z,22.39
2024-02-06T12:15:24.130Z,22.32
2024-02-06T12:16:24.221Z,22.33
2024-02-06T12:17:24.273Z,22.40
2024-02-06T12:18:24.406Z,22.41
2024-02-06T12:19:24.423Z,22.70
2024-02-06T12:20:24.507Z,22.77
2024-02-06T12:21:24.488Z,22.79
2024-02-06T12:22:24.890Z,22.37
2024-02-06T12:23:24.610Z,22.42
2024-02-06T12:24:24.683Z,22.43
2024-02-06T12:25:24.762Z,22.40
2024-02-06T12:26:24.756Z,22.74
2024-02-06T12:27:24.843Z,23.03
2024-02-06T12:28:24.925Z,23.09
2024-02-06T12:29:24.983Z,23.05
2024-02-06T12:30:25.024Z,22.83
2024-02-06T12:31:25.055Z,22.88
2024-02-06T12:32:25.208Z,22.72
2024-02-06T12:33:25.324Z,22.88
2024-02-06T12:34:25.446Z,22.63
2024-02-06T12:35:25.307Z,22.49
2024-02-06T12:36:25.356Z,22.57
2024-02-06T12:37:25.512Z,22.44
2024-02-06T12:38:25.465Z,22.77
2024-02-06T12:39:25.523Z,22.94
2024-02-06T12:40:25.611Z,22.98
2024-02-06T12:41:25.678Z,22.41
2024-02-06T12:42:25.691Z,22.59
2024-02-06T12:43:25.835Z,22.42
2024-02-06T12:44:41.218Z,22.79
2024-02-06T12:45:26.828Z,22.56
2024-02-06T12:46:25.866Z,22.73
2024-02-06T12:47:25.831Z,22.46
2024-02-06T12:48:25.870Z,22.27
2024-02-06T12:49:25.901Z,22.63
2024-02-06T12:50:25.948Z,22.38
2024-02-06T12:51:25.825Z,22.30
2024-02-06T12:52:25.855Z,22.17
2024-02-06T12:53:25.872Z,22.41